Island Lookout — WDF6311 — position and weather

sailwx.info

Track history (hours):
 
Tides and Currents Weather Stations Pressure Air Temp Water Temp Dewpoint Dewpoint Depression Visibility Wind Speed Wind Dir Waves Ship Positions

Island Lookout

Owner: Stevens Towing Company Inc., Yonges Island, SC. More information available from US FCC via Universal Licensing System and Coast Guard Vessel Documentation Center.

Last reported at 2017-Dec-11 17:01 UTC. Time now 2017-Dec-13 15:06 UTC.
Position N 36°45' W 076°18'.

Length 22 m; draft 2.9 m.

Type: Towing. MMSI: 367472930.

Date/timePositionNaut miles runAvg speedWind from/ knotsBaromVisibWave heightAir tempDewpointWater temp
2017-Dec-11 17:01N 36°45' W 076°18'2 4.2
2017-Dec-11 16:30N 36°47' W 076°18'0 0.1
2017-Dec-11 16:01N 36°47' W 076°18'0 0.1
2017-Dec-11 15:31N 36°47' W 076°18'0 0.1
2017-Dec-11 15:00N 36°47' W 076°18'0 0.0
2017-Dec-11 14:31N 36°47' W 076°18'0 0.0
2017-Dec-11 14:01N 36°47' W 076°18'0 0.1
2017-Dec-11 13:31N 36°47' W 076°18'0 0.1
2017-Dec-11 13:01N 36°47' W 076°18'0 0.0
2017-Dec-11 12:31N 36°47' W 076°18'0 0.0
2017-Dec-11 12:01N 36°47' W 076°18'0 0.0
2017-Dec-11 11:31N 36°47' W 076°18'0 0.0
2017-Dec-11 11:00N 36°47' W 076°18'0 0.0
2017-Dec-11 10:30N 36°47' W 076°18'0 0.0
2017-Dec-11 10:01N 36°47' W 076°18'0 0.9
2017-Dec-11 09:31N 36°46' W 076°18'3 5.0
2017-Dec-11 09:00N 36°44' W 076°17'2 3.1
2017-Dec-11 08:30N 36°43' W 076°15'  
2017-Dec-07 20:26N 36°43' W 076°05'7 3.2
2017-Dec-07 18:08N 36°43' W 076°14'0 2.7
2017-Dec-07 18:00N 36°43' W 076°15'0 0.1
2017-Dec-07 17:09N 36°43' W 076°15'0 0.0
2017-Dec-07 16:45N 36°43' W 076°15'0 0.7
2017-Dec-07 16:30N 36°43' W 076°15'1 2.5
2017-Dec-07 16:01N 36°44' W 076°16'2 4.3
2017-Dec-07 15:31N 36°46' W 076°18'2 3.8
2017-Dec-07 15:01N 36°48' W 076°18'3 6.5
2017-Dec-07 14:30N 36°51' W 076°18'4 6.9
2017-Dec-07 14:00N 36°54' W 076°20'4 7.3
2017-Dec-07 13:31N 36°57' W 076°20'  
2017-Dec-04 10:25N 39°12' W 076°35'0 0.0
2017-Dec-04 10:01N 39°12' W 076°35'0 0.0
2017-Dec-04 09:30N 39°12' W 076°35'0 0.0
2017-Dec-04 09:01N 39°12' W 076°35'0 0.0
2017-Dec-04 08:31N 39°12' W 076°35'0 0.0
2017-Dec-04 08:01N 39°12' W 076°35'0 0.0
2017-Dec-04 07:30N 39°12' W 076°35'0 0.0
2017-Dec-04 06:56N 39°12' W 076°35'0 0.0
2017-Dec-04 06:30N 39°12' W 076°35'0 0.0
2017-Dec-04 06:01N 39°12' W 076°35'0 0.0
2017-Dec-04 05:31N 39°12' W 076°35'0 0.0
2017-Dec-04 05:01N 39°12' W 076°35'0 0.0
2017-Dec-04 04:31N 39°12' W 076°35'0 0.0
2017-Dec-04 04:01N 39°12' W 076°35'0 0.0
2017-Dec-04 03:31N 39°12' W 076°35'0 0.0
2017-Dec-04 03:01N 39°12' W 076°35'0 0.0
2017-Dec-04 02:30N 39°12' W 076°35'0 0.0
2017-Dec-04 02:01N 39°12' W 076°35'0 0.0
2017-Dec-04 01:31N 39°12' W 076°35'0 0.0
2017-Dec-04 01:00N 39°12' W 076°35'0 0.0
2017-Dec-04 00:31N 39°12' W 076°35'0 0.0
2017-Dec-04 00:01N 39°12' W 076°35'0 0.0
2017-Dec-03 23:31N 39°12' W 076°35'0 0.0
2017-Dec-03 23:01N 39°12' W 076°35'0 0.0
2017-Dec-03 22:31N 39°12' W 076°35'0 0.0
2017-Dec-03 22:01N 39°12' W 076°35'0 0.0
2017-Dec-03 21:31N 39°12' W 076°35'2 3.3
2017-Dec-03 21:01N 39°13' W 076°33'4 7.1
2017-Dec-03 20:31N 39°12' W 076°29'4 7.5
2017-Dec-03 20:01N 39°10' W 076°25'6 7.6
2017-Dec-03 19:13N 39°04' W 076°24'2 7.8
2017-Dec-03 19:01N 39°02' W 076°23'4 7.4
2017-Dec-03 18:24N 38°58' W 076°24'5 7.3
2017-Dec-03 17:41N 38°53' W 076°25'2 7.2
2017-Dec-03 17:26N 38°51' W 076°26'114 6.7
2017-Dec-03 00:33N 36°57' W 076°20'0 7.7
2017-Dec-03 00:30N 36°57' W 076°20'4 7.1
2017-Dec-03 00:00N 36°53' W 076°20'3 6.7
2017-Dec-02 23:31N 36°50' W 076°18'3 6.3
2017-Dec-02 23:01N 36°47' W 076°18'1 2.6
2017-Dec-02 22:31N 36°46' W 076°18'2 4.1
2017-Dec-02 22:00N 36°44' W 076°17'2 4.0
2017-Dec-02 21:30N 36°43' W 076°15'0 0.4
2017-Dec-02 21:01N 36°43' W 076°15'7 5.3
2017-Dec-02 19:38N 36°43' W 076°06'2 4.7
2017-Dec-02 19:16N 36°42' W 076°04'2 5.7
2017-Dec-02 18:52N 36°39' W 076°04'  
Track history (hours):
 
Tides and Currents Weather Stations Pressure Air Temp Water Temp Dewpoint Dewpoint Depression Visibility Wind Speed Wind Dir Waves Ship Positions

Island Lookout

Owner: Stevens Towing Company Inc., Yonges Island, SC. More information available from US FCC via Universal Licensing System and Coast Guard Vessel Documentation Center.

Last reported at 2017-Dec-11 17:01 UTC. Time now 2017-Dec-13 15:06 UTC.
Position N 36°45' W 076°18'.

Length 22 m; draft 2.9 m.

Type: Towing. MMSI: 367472930.

Date/timePositionNaut miles runAvg speedWind from/ knotsBaromVisibWave heightAir tempDewpointWater temp
2017-Dec-11 17:01N 36°45' W 076°18'2 4.2
2017-Dec-11 16:30N 36°47' W 076°18'0 0.1
2017-Dec-11 16:01N 36°47' W 076°18'0 0.1
2017-Dec-11 15:31N 36°47' W 076°18'0 0.1
2017-Dec-11 15:00N 36°47' W 076°18'0 0.0
2017-Dec-11 14:31N 36°47' W 076°18'0 0.0
2017-Dec-11 14:01N 36°47' W 076°18'0 0.1
2017-Dec-11 13:31N 36°47' W 076°18'0 0.1
2017-Dec-11 13:01N 36°47' W 076°18'0 0.0
2017-Dec-11 12:31N 36°47' W 076°18'0 0.0
2017-Dec-11 12:01N 36°47' W 076°18'0 0.0
2017-Dec-11 11:31N 36°47' W 076°18'0 0.0
2017-Dec-11 11:00N 36°47' W 076°18'0 0.0
2017-Dec-11 10:30N 36°47' W 076°18'0 0.0
2017-Dec-11 10:01N 36°47' W 076°18'0 0.9
2017-Dec-11 09:31N 36°46' W 076°18'3 5.0
2017-Dec-11 09:00N 36°44' W 076°17'2 3.1
2017-Dec-11 08:30N 36°43' W 076°15'  
2017-Dec-07 20:26N 36°43' W 076°05'7 3.2
2017-Dec-07 18:08N 36°43' W 076°14'0 2.7
2017-Dec-07 18:00N 36°43' W 076°15'0 0.1
2017-Dec-07 17:09N 36°43' W 076°15'0 0.0
2017-Dec-07 16:45N 36°43' W 076°15'0 0.7
2017-Dec-07 16:30N 36°43' W 076°15'1 2.5
2017-Dec-07 16:01N 36°44' W 076°16'2 4.3
2017-Dec-07 15:31N 36°46' W 076°18'2 3.8
2017-Dec-07 15:01N 36°48' W 076°18'3 6.5
2017-Dec-07 14:30N 36°51' W 076°18'4 6.9
2017-Dec-07 14:00N 36°54' W 076°20'4 7.3
2017-Dec-07 13:31N 36°57' W 076°20'  
2017-Dec-04 10:25N 39°12' W 076°35'0 0.0
2017-Dec-04 10:01N 39°12' W 076°35'0 0.0
2017-Dec-04 09:30N 39°12' W 076°35'0 0.0
2017-Dec-04 09:01N 39°12' W 076°35'0 0.0
2017-Dec-04 08:31N 39°12' W 076°35'0 0.0
2017-Dec-04 08:01N 39°12' W 076°35'0 0.0
2017-Dec-04 07:30N 39°12' W 076°35'0 0.0
2017-Dec-04 06:56N 39°12' W 076°35'0 0.0
2017-Dec-04 06:30N 39°12' W 076°35'0 0.0
2017-Dec-04 06:01N 39°12' W 076°35'0 0.0
2017-Dec-04 05:31N 39°12' W 076°35'0 0.0
2017-Dec-04 05:01N 39°12' W 076°35'0 0.0
2017-Dec-04 04:31N 39°12' W 076°35'0 0.0
2017-Dec-04 04:01N 39°12' W 076°35'0 0.0
2017-Dec-04 03:31N 39°12' W 076°35'0 0.0
2017-Dec-04 03:01N 39°12' W 076°35'0 0.0
2017-Dec-04 02:30N 39°12' W 076°35'0 0.0
2017-Dec-04 02:01N 39°12' W 076°35'0 0.0
2017-Dec-04 01:31N 39°12' W 076°35'0 0.0
2017-Dec-04 01:00N 39°12' W 076°35'0 0.0
2017-Dec-04 00:31N 39°12' W 076°35'0 0.0
2017-Dec-04 00:01N 39°12' W 076°35'0 0.0
2017-Dec-03 23:31N 39°12' W 076°35'0 0.0
2017-Dec-03 23:01N 39°12' W 076°35'0 0.0
2017-Dec-03 22:31N 39°12' W 076°35'0 0.0
2017-Dec-03 22:01N 39°12' W 076°35'0 0.0
2017-Dec-03 21:31N 39°12' W 076°35'2 3.3
2017-Dec-03 21:01N 39°13' W 076°33'4 7.1
2017-Dec-03 20:31N 39°12' W 076°29'4 7.5
2017-Dec-03 20:01N 39°10' W 076°25'6 7.6
2017-Dec-03 19:13N 39°04' W 076°24'2 7.8
2017-Dec-03 19:01N 39°02' W 076°23'4 7.4
2017-Dec-03 18:24N 38°58' W 076°24'5 7.3
2017-Dec-03 17:41N 38°53' W 076°25'2 7.2
2017-Dec-03 17:26N 38°51' W 076°26'114 6.7
2017-Dec-03 00:33N 36°57' W 076°20'0 7.7
2017-Dec-03 00:30N 36°57' W 076°20'4 7.1
2017-Dec-03 00:00N 36°53' W 076°20'3 6.7
2017-Dec-02 23:31N 36°50' W 076°18'3 6.3
2017-Dec-02 23:01N 36°47' W 076°18'1 2.6
2017-Dec-02 22:31N 36°46' W 076°18'2 4.1
2017-Dec-02 22:00N 36°44' W 076°17'2 4.0
2017-Dec-02 21:30N 36°43' W 076°15'0 0.4
2017-Dec-02 21:01N 36°43' W 076°15'7 5.3
2017-Dec-02 19:38N 36°43' W 076°06'2 4.7
2017-Dec-02 19:16N 36°42' W 076°04'2 5.7
2017-Dec-02 18:52N 36°39' W 076°04'  

Dump ship's entire track history